Time;durP1;ratioP1;P1;durP2;ratioP2;P2;SDS_P1;SDS_P2;PMS_P1;PMS_P2;Temp;Humidity;BMP_temperature;BMP_pressure;BME280_temperature;BME280_humidity;BME280_pressure;Samples;Min_cycle;Max_cycle;Signal;HPM_P1;HPM_P2
2022/09/28 00:02:12;;;;;;;5.30;1.30;;;;;;;16.48;87.09;98976.13;4979780;29;20039;-83
2022/09/28 00:04:50;;;;;;;8.73;1.25;;;;;;;16.49;85.92;98973.22;5212590;23;20050;-82
2022/09/28 00:07:16;;;;;;;7.47;1.38;;;;;;;16.56;85.49;98983.81;5000959;28;20046;-80
2022/09/28 00:09:47;;;;;;;9.60;1.75;;;;;;;16.45;85.27;98981.94;5001191;28;20027;-82
2022/09/28 00:16:14;;;;;;;12.30;1.70;;;;;;;16.24;89.07;98983.38;5015708;28;20057;-82
2022/09/28 00:18:53;;;;;;;10.32;1.80;;;;;;;16.24;88.68;98994.09;4954119;29;20151;-84
2022/09/28 01:00:47;;;;;;;8.68;2.55;;;;;;;15.31;100.00;98993.28;5196617;23;20055;-83
2022/09/28 01:20:34;;;;;;;13.37;2.80;;;;;;;15.80;100.00;98968.84;5878762;23;20297;-83
2022/09/28 01:46:02;;;;;;;17.95;2.75;;;;;;;15.45;100.00;98959.97;4993895;28;20043;-82
2022/09/28 01:48:56;;;;;;;8.20;2.28;;;;;;;15.31;100.00;98953.25;4917047;29;20044;-82
2022/09/28 01:51:48;;;;;;;14.57;2.85;;;;;;;15.30;100.00;98962.28;4918295;29;20044;-84
2022/09/28 01:55:48;;;;;;;10.27;2.33;;;;;;;15.07;100.00;98962.25;4916945;29;20152;-80
2022/09/28 02:15:22;;;;;;;13.13;2.80;;;;;;;15.37;100.00;98963.00;4735789;26;20047;-81
2022/09/28 02:18:22;;;;;;;9.18;2.50;;;;;;;15.29;100.00;98950.78;4958256;29;20059;-81
2022/09/28 02:21:11;;;;;;;7.32;1.98;;;;;;;15.16;100.00;98960.84;4981182;23;20095;-91
2022/09/28 02:23:46;;;;;;;11.27;2.67;;;;;;;15.00;100.00;98962.34;4998632;28;20062;-91
2022/09/28 02:26:38;;;;;;;16.88;2.67;;;;;;;14.95;100.00;98964.88;4985167;28;20046;-92
2022/09/28 02:29:11;;;;;;;12.60;2.92;;;;;;;14.89;100.00;98955.94;4935580;28;20066;-90
2022/09/28 02:32:00;;;;;;;13.88;3.08;;;;;;;15.10;100.00;98962.59;4999780;28;20022;-91
2022/09/28 02:34:27;;;;;;;12.65;2.58;;;;;;;15.07;100.00;98952.38;4967193;28;20600;-89
2022/09/28 02:37:01;;;;;;;15.32;2.17;;;;;;;14.96;100.00;98945.97;4999213;28;20018;-89
2022/09/28 02:39:28;;;;;;;13.38;2.50;;;;;;;15.07;100.00;98949.72;4966165;28;20106;-91
2022/09/28 02:42:00;;;;;;;9.60;2.22;;;;;;;15.23;100.00;98953.56;4981008;28;20070;-88
2022/09/28 02:44:40;;;;;;;9.40;2.20;;;;;;;15.15;100.00;98953.88;4992872;28;20037;-88
2022/09/28 02:47:25;;;;;;;13.45;2.80;;;;;;;15.19;100.00;98944.38;4959540;29;20047;-88
2022/09/28 02:51:04;;;;;;;14.35;2.95;;;;;;;14.95;100.00;98936.34;4959556;29;20102;-86
2022/09/28 02:53:33;;;;;;;19.00;3.72;;;;;;;14.90;100.00;98933.56;4915814;29;20084;-87
2022/09/28 02:56:33;;;;;;;16.13;2.45;;;;;;;14.84;100.00;98937.16;4901111;29;20126;-87
2022/09/28 02:59:21;;;;;;;11.18;3.05;;;;;;;14.73;100.00;98932.56;4911806;29;20036;-86
2022/09/28 03:02:09;;;;;;;14.05;3.35;;;;;;;14.66;100.00;98923.03;4918796;29;20037;-86
2022/09/28 03:05:06;;;;;;;13.65;3.67;;;;;;;14.51;100.00;98934.13;4915951;29;20040;-88
2022/09/28 03:07:44;;;;;;;14.43;3.78;;;;;;;14.36;100.00;98931.03;4925450;29;20113;-87
2022/09/28 03:10:19;;;;;;;17.55;4.63;;;;;;;14.33;100.00;98926.97;4942337;29;20123;-88
2022/09/28 03:12:47;;;;;;;10.02;3.65;;;;;;;14.47;100.00;98924.94;4957421;29;20043;-87
2022/09/28 03:15:22;;;;;;;11.20;3.38;;;;;;;14.30;100.00;98929.25;4957347;29;20098;-86
2022/09/28 03:17:48;;;;;;;11.68;2.97;;;;;;;14.34;100.00;98931.28;4941066;29;20054;-88
2022/09/28 03:20:14;;;;;;;12.45;2.08;;;;;;;14.39;100.00;98925.25;4957465;29;20035;-90
2022/09/28 03:22:40;;;;;;;10.13;2.05;;;;;;;14.38;100.00;98926.31;4940917;29;20054;-87
2022/09/28 03:25:07;;;;;;;9.32;2.40;;;;;;;14.42;100.00;98928.28;4957683;29;20039;-88
2022/09/28 03:27:41;;;;;;;7.53;1.80;;;;;;;14.05;100.00;98936.53;4941933;29;20054;-88
2022/09/28 03:30:10;;;;;;;19.08;2.72;;;;;;;13.96;100.00;98934.16;4958432;29;20041;-87
2022/09/28 03:33:03;;;;;;;11.32;2.25;;;;;;;13.90;100.00;98923.59;4943090;28;20047;-86
2022/09/28 03:35:33;;;;;;;9.30;2.75;;;;;;;13.94;100.00;98925.59;4960034;29;20132;-86
2022/09/28 03:37:59;;;;;;;15.57;3.05;;;;;;;13.96;100.00;98914.69;4963739;28;20035;-89
2022/09/28 03:40:31;;;;;;;10.60;2.78;;;;;;;13.82;100.00;98921.22;4944042;29;20083;-90
2022/09/28 03:42:56;;;;;;;6.93;2.75;;;;;;;14.17;100.00;98916.09;4943559;29;20043;-89
2022/09/28 03:45:22;;;;;;;14.38;3.08;;;;;;;14.09;100.00;98927.03;4944195;29;20046;-89
2022/09/28 03:47:50;;;;;;;13.73;2.75;;;;;;;14.02;100.00;98921.00;4957475;29;20035;-88
2022/09/28 03:50:17;;;;;;;14.00;2.92;;;;;;;14.12;100.00;98922.06;4958622;29;20035;-87
2022/09/28 03:53:06;;;;;;;12.82;3.10;;;;;;;14.26;100.00;98928.06;4961444;29;20079;-90
2022/09/28 03:55:33;;;;;;;11.55;2.97;;;;;;;14.12;100.00;98916.75;4927892;29;20039;-90
2022/09/28 03:58:00;;;;;;;13.55;2.63;;;;;;;14.17;100.00;98922.22;4958770;29;20106;-90
2022/09/28 04:00:29;;;;;;;8.73;2.85;;;;;;;14.24;100.00;98922.16;4943045;29;20070;-89
2022/09/28 04:02:54;;;;;;;11.15;3.45;;;;;;;14.43;100.00;98921.09;4958258;29;20031;-90
2022/09/28 04:05:29;;;;;;;9.80;3.17;;;;;;;14.58;100.00;98926.84;4943173;29;20043;-89
2022/09/28 04:07:57;;;;;;;14.38;3.90;;;;;;;14.49;100.00;98912.19;4927328;29;20071;-91
2022/09/28 04:10:27;;;;;;;19.65;3.22;;;;;;;14.43;100.00;98913.09;4943923;29;20106;-91
2022/09/28 04:12:57;;;;;;;10.13;3.55;;;;;;;14.71;100.00;98915.19;4938694;29;20043;-91
2022/09/28 04:15:24;;;;;;;9.20;2.50;;;;;;;14.74;100.00;98915.53;4942311;29;20045;-89
2022/09/28 04:17:55;;;;;;;14.00;3.83;;;;;;;14.62;100.00;98912.00;4974200;29;20023;-88
2022/09/28 04:20:44;;;;;;;10.35;3.58;;;;;;;14.49;100.00;98909.53;4948379;29;20128;-90
2022/09/28 04:23:47;;;;;;;15.13;3.85;;;;;;;14.51;100.00;98910.13;4948785;29;20035;-90
2022/09/28 04:26:37;;;;;;;11.85;3.75;;;;;;;14.44;100.00;98912.09;4963726;28;20063;-87
2022/09/28 04:29:15;;;;;;;9.07;2.95;;;;;;;14.62;100.00;98911.19;4947021;29;20039;-87
2022/09/28 04:32:12;;;;;;;;;;;;;;;14.57;100.00;98917.22;4950323;28;20027;-87
2022/09/28 04:34:39;;;;;;;13.25;3.58;;;;;;;14.64;100.00;98912.63;4948349;28;19910;-87
2022/09/28 04:37:05;;;;;;;13.40;3.85;;;;;;;14.59;100.00;98912.47;4961225;29;20046;-86
2022/09/28 04:39:31;;;;;;;15.40;3.33;;;;;;;14.63;100.00;98910.97;4976208;29;20051;-87
2022/09/28 04:42:17;;;;;;;17.23;4.55;;;;;;;14.65;100.00;98916.09;4977290;29;20023;-88
2022/09/28 04:44:44;;;;;;;13.90;3.70;;;;;;;14.52;100.00;98911.75;4946572;28;20043;-87
2022/09/28 04:47:10;;;;;;;13.18;4.75;;;;;;;14.41;100.00;98925.84;4956596;29;20042;-88
2022/09/28 04:49:59;;;;;;;11.05;4.95;;;;;;;14.37;100.00;98917.50;4946064;29;20043;-88
2022/09/28 04:52:30;;;;;;;15.63;5.13;;;;;;;14.73;100.00;98913.91;4975156;29;20070;-87
2022/09/28 04:54:56;;;;;;;17.55;5.22;;;;;;;14.54;100.00;98912.34;4958433;29;20039;-87
2022/09/28 04:57:23;;;;;;;12.50;5.68;;;;;;;14.77;100.00;98901.75;4953344;29;20032;-86
2022/09/28 04:59:49;;;;;;;14.00;6.85;;;;;;;14.74;100.00;98904.88;4970822;28;20041;-84
2022/09/28 05:02:15;;;;;;;16.33;5.97;;;;;;;14.61;100.00;98910.41;4973775;28;20038;-84
2022/09/28 05:05:01;;;;;;;16.63;7.13;;;;;;;14.34;100.00;98925.13;4989282;28;20093;-87
2022/09/28 05:08:26;;;;;;;23.70;8.25;;;;;;;14.41;100.00;98921.34;3028038;26;20047;-87
2022/09/28 05:11:40;;;;;;;17.90;7.72;;;;;;;14.58;100.00;98923.38;4976292;29;20031;-83
2022/09/28 05:14:20;;;;;;;23.40;7.90;;;;;;;14.43;100.00;98929.09;4962467;29;20142;-82
2022/09/28 05:16:55;;;;;;;19.70;7.20;;;;;;;14.28;100.00;98929.47;4960678;28;20035;-85
2022/09/28 05:20:04;;;;;;;14.52;7.47;;;;;;;14.14;100.00;98932.53;5027158;23;20050;-82
2022/09/28 05:22:53;;;;;;;19.25;7.57;;;;;;;14.01;100.00;98940.69;4960521;29;20051;-85
2022/09/28 05:26:10;;;;;;;20.88;8.80;;;;;;;13.99;100.00;98938.22;4941262;29;20051;-82
2022/09/28 05:29:04;;;;;;;18.23;8.65;;;;;;;13.85;100.00;98942.88;4974096;29;20046;-82
2022/09/28 05:31:51;;;;;;;21.10;10.75;;;;;;;14.06;100.00;98938.97;4990053;23;20124;-85
2022/09/28 05:34:34;;;;;;;19.00;10.18;;;;;;;13.80;100.00;98932.09;4976283;28;20130;-83
2022/09/28 05:36:59;;;;;;;26.40;12.40;;;;;;;13.74;100.00;98930.31;4957896;28;20512;-86
2022/09/28 05:39:25;;;;;;;24.65;11.68;;;;;;;13.69;100.00;98932.81;4958721;28;20180;-84
2022/09/28 05:41:50;;;;;;;18.42;10.68;;;;;;;13.68;100.00;98922.41;4975120;28;20034;-86
2022/09/28 05:44:16;;;;;;;23.92;11.57;;;;;;;13.86;100.00;98922.38;4957340;28;20125;-84
2022/09/28 05:46:42;;;;;;;23.88;11.05;;;;;;;13.70;100.00;98918.47;4957311;28;20522;-85
2022/09/28 05:49:09;;;;;;;19.95;10.55;;;;;;;13.60;100.00;98918.16;4957412;28;20026;-83
2022/09/28 05:51:35;;;;;;;22.42;10.93;;;;;;;13.27;100.00;98923.00;4956896;28;20484;-86
2022/09/28 05:54:00;;;;;;;16.38;11.20;;;;;;;13.50;100.00;98936.50;4973084;28;20041;-83
2022/09/28 05:56:29;;;;;;;21.00;10.95;;;;;;;13.40;100.00;98933.50;4955959;28;20034;-84
2022/09/28 05:58:57;;;;;;;18.02;10.57;;;;;;;13.49;100.00;98947.38;4973804;28;20035;-84
2022/09/28 06:01:23;;;;;;;15.90;9.85;;;;;;;13.46;100.00;98940.63;4956133;28;20485;-84
2022/09/28 06:03:48;;;;;;;21.92;9.27;;;;;;;13.27;100.00;98938.94;4956585;28;20022;-83
2022/09/28 06:06:14;;;;;;;14.65;9.20;;;;;;;13.26;100.00;98932.00;4955968;28;20031;-83
2022/09/28 06:08:42;;;;;;;19.95;10.13;;;;;;;13.30;100.00;98926.03;4956580;28;20034;-85
2022/09/28 06:11:43;;;;;;;16.90;10.57;;;;;;;13.18;100.00;98932.28;4895960;29;20072;-83
2022/09/28 06:14:19;;;;;;;17.42;10.18;;;;;;;13.14;100.00;98939.06;4946644;28;20134;-85
2022/09/28 06:16:44;;;;;;;18.05;9.48;;;;;;;13.35;100.00;98936.84;4956692;28;20154;-84
2022/09/28 06:19:11;;;;;;;17.05;10.18;;;;;;;13.26;100.00;98926.66;4956650;28;20473;-85
2022/09/28 06:21:55;;;;;;;23.63;10.30;;;;;;;13.24;100.00;98918.09;4974131;28;20508;-82
2022/09/28 06:24:22;;;;;;;16.75;10.35;;;;;;;13.19;100.00;98915.31;4956711;28;20493;-86
2022/09/28 06:26:47;;;;;;;17.95;10.18;;;;;;;13.32;100.00;98920.50;4940821;28;20034;-84
2022/09/28 06:29:18;;;;;;;20.67;10.10;;;;;;;13.37;100.00;98918.00;4956877;28;20515;-85
2022/09/28 06:31:44;;;;;;;16.27;10.23;;;;;;;13.24;100.00;98920.78;4956293;28;20097;-84
2022/09/28 06:34:11;;;;;;;19.08;11.02;;;;;;;13.53;100.00;98927.25;4957020;28;20031;-85
2022/09/28 06:36:38;;;;;;;15.02;10.00;;;;;;;13.52;100.00;98926.47;4956698;28;20039;-85
2022/09/28 06:39:04;;;;;;;18.55;9.80;;;;;;;13.71;100.00;98940.59;4956743;28;20045;-85
2022/09/28 06:41:30;;;;;;;14.30;9.85;;;;;;;13.58;100.00;98948.72;4956589;28;20086;-86
2022/09/28 06:43:58;;;;;;;22.02;9.57;;;;;;;13.86;100.00;98944.50;4956955;28;20054;-86
2022/09/28 06:46:47;;;;;;;15.98;9.77;;;;;;;13.87;100.00;98943.50;4966252;28;20137;-85
2022/09/28 06:49:15;;;;;;;16.45;10.02;;;;;;;14.03;100.00;98950.06;4974315;28;20046;-84
2022/09/28 06:51:59;;;;;;;16.33;9.63;;;;;;;14.06;100.00;98948.78;4973893;28;20193;-83
2022/09/28 06:54:44;;;;;;;16.45;9.75;;;;;;;14.58;100.00;98942.84;4982450;28;20089;-85
2022/09/28 06:57:22;;;;;;;19.58;9.02;;;;;;;14.96;100.00;98940.63;4957542;28;20085;-84
2022/09/28 06:59:48;;;;;;;19.15;8.70;;;;;;;15.01;100.00;98943.41;4947484;28;20373;-87
2022/09/28 07:02:13;;;;;;;18.00;9.75;;;;;;;14.70;100.00;98930.38;4957214;28;20034;-85
2022/09/28 07:05:07;;;;;;;16.25;8.52;;;;;;;14.59;100.00;98935.66;4957294;28;20077;-85
2022/09/28 07:08:00;;;;;;;18.75;9.20;;;;;;;14.78;100.00;98931.91;4965958;28;20401;-85
2022/09/28 07:11:00;;;;;;;27.67;9.80;;;;;;;14.82;100.00;98933.88;4977767;28;20428;-83
2022/09/28 07:13:52;;;;;;;12.75;8.45;;;;;;;14.95;100.00;98928.34;4954449;28;20053;-81
2022/09/28 07:16:20;;;;;;;16.10;9.18;;;;;;;14.97;100.00;98923.59;4978404;28;20031;-82
2022/09/28 07:18:46;;;;;;;18.92;8.52;;;;;;;14.70;100.00;98929.56;4993906;28;20062;-83
2022/09/28 07:21:12;;;;;;;15.45;9.65;;;;;;;14.54;100.00;98935.53;4979318;28;20065;-84
2022/09/28 07:23:40;;;;;;;16.20;9.07;;;;;;;14.58;100.00;98916.19;4962146;28;20039;-86
2022/09/28 07:26:21;;;;;;;21.83;9.83;;;;;;;14.53;100.00;98916.03;4962869;28;20039;-88
2022/09/28 07:29:13;;;;;;;18.07;9.73;;;;;;;14.40;100.00;98925.03;4974809;28;20504;-86
2022/09/28 07:31:57;;;;;;;19.08;9.18;;;;;;;14.64;100.00;98912.63;4977596;28;20050;-86
2022/09/28 07:34:43;;;;;;;23.90;9.68;;;;;;;14.62;100.00;98930.69;4983160;28;20059;-85
2022/09/28 07:37:17;;;;;;;14.63;8.70;;;;;;;14.41;100.00;98931.19;4971038;28;20031;-84
2022/09/28 07:42:38;;;;;;;24.08;8.77;;;;;;;14.80;100.00;98930.63;4965873;28;20061;-84
2022/09/28 07:45:05;;;;;;;14.82;8.27;;;;;;;14.97;100.00;98930.78;4987728;28;20031;-85
2022/09/28 07:47:31;;;;;;;13.88;8.35;;;;;;;14.85;100.00;98927.25;5000875;28;20026;-83
2022/09/28 07:50:35;;;;;;;15.05;8.40;;;;;;;14.75;100.00;98927.03;4941641;29;20060;-83
2022/09/28 07:53:21;;;;;;;20.65;9.25;;;;;;;14.77;100.00;98935.59;4935785;29;20039;-85
2022/09/28 07:56:06;;;;;;;19.55;8.60;;;;;;;15.10;100.00;98951.09;4907058;29;20139;-85
2022/09/28 07:58:37;;;;;;;17.63;8.32;;;;;;;15.36;100.00;98943.47;4896488;29;21014;-82
2022/09/28 08:01:22;;;;;;;15.50;7.93;;;;;;;15.63;100.00;98941.19;4896797;29;20097;-87
2022/09/28 08:03:48;;;;;;;15.95;8.15;;;;;;;15.73;100.00;98953.97;4882483;29;20455;-85
2022/09/28 08:06:15;;;;;;;21.60;7.85;;;;;;;15.85;100.00;98950.22;4896904;29;20036;-84
2022/09/28 08:08:43;;;;;;;18.58;7.25;;;;;;;16.17;100.00;98947.16;4900014;29;20055;-83
2022/09/28 08:11:15;;;;;;;15.73;7.03;;;;;;;16.88;100.00;98950.16;4901233;29;20123;-85
2022/09/28 08:14:00;;;;;;;18.02;7.35;;;;;;;17.65;100.00;98961.09;4917076;29;20095;-85
2022/09/28 08:17:01;;;;;;;11.00;6.38;;;;;;;18.14;100.00;98966.56;4914460;29;20036;-85
2022/09/28 08:22:21;;;;;;;11.98;6.20;;;;;;;18.77;100.00;98968.69;4972687;28;20074;-85
2022/09/28 08:24:49;;;;;;;25.02;6.50;;;;;;;19.03;100.00;98971.38;4978177;28;20487;-84
2022/09/28 08:27:16;;;;;;;23.05;6.45;;;;;;;19.27;100.00;98962.97;4978170;28;20038;-86
2022/09/28 08:29:42;;;;;;;12.65;5.82;;;;;;;19.34;100.00;98968.94;4977608;28;20033;-86
2022/09/28 08:32:28;;;;;;;19.33;6.18;;;;;;;18.83;100.00;98967.66;4994953;28;20057;-85
2022/09/28 08:35:13;;;;;;;14.23;6.50;;;;;;;18.73;100.00;98965.69;4995034;28;20408;-84
2022/09/28 08:38:02;;;;;;;16.95;6.68;;;;;;;18.70;100.00;98968.88;4955314;28;20108;-86
2022/09/28 08:40:55;;;;;;;16.40;7.28;;;;;;;19.67;100.00;98957.94;4995550;28;20454;-86
2022/09/28 08:43:53;;;;;;;15.30;5.50;;;;;;;19.85;100.00;98964.78;4997034;28;20042;-85
2022/09/28 08:46:46;;;;;;;18.77;5.43;;;;;;;20.05;99.77;98978.34;4994455;28;20049;-85
2022/09/28 08:49:35;;;;;;;17.02;5.30;;;;;;;20.03;100.00;98967.84;4977282;28;20081;-84
2022/09/28 08:52:26;;;;;;;14.55;5.75;;;;;;;20.46;98.84;98973.97;4995042;28;20048;-85
2022/09/28 08:55:41;;;;;;;16.70;6.18;;;;;;;20.34;99.68;98968.00;4977332;28;20038;-84
2022/09/28 08:58:10;;;;;;;13.52;5.60;;;;;;;20.89;96.65;98965.47;4994192;28;20499;-83
2022/09/28 09:00:46;;;;;;;12.90;5.25;;;;;;;20.60;96.55;98967.03;4976845;28;20109;-85
2022/09/28 09:03:16;;;;;;;16.95;5.70;;;;;;;20.37;99.06;98968.28;4977049;28;20072;-85
2022/09/28 09:06:04;;;;;;;10.98;5.35;;;;;;;20.27;100.00;98962.06;4977063;28;20121;-84
2022/09/28 09:09:14;;;;;;;13.32;6.18;;;;;;;19.76;100.00;98967.13;4991493;28;20042;-84
2022/09/28 09:11:48;;;;;;;14.98;5.70;;;;;;;20.01;100.00;98963.78;4994663;28;20042;-84
2022/09/28 09:14:18;;;;;;;15.15;6.28;;;;;;;19.95;100.00;98975.59;4977353;28;20507;-83
2022/09/28 09:17:20;;;;;;;14.68;5.97;;;;;;;20.29;100.00;98971.47;4977002;28;20065;-87
2022/09/28 09:20:25;;;;;;;12.93;6.25;;;;;;;20.71;100.00;98967.88;4994128;28;20551;-86
2022/09/28 09:23:00;;;;;;;14.57;6.47;;;;;;;21.11;98.06;98960.69;4994256;28;20120;-88
2022/09/28 09:25:53;;;;;;;11.70;6.13;;;;;;;21.97;92.82;98954.44;4993421;28;20034;-86
2022/09/28 09:29:04;;;;;;;12.20;5.95;;;;;;;21.68;93.37;98964.97;4973983;28;20061;-84
2022/09/28 09:32:20;;;;;;;14.75;5.70;;;;;;;21.64;93.31;98962.00;4931395;28;20047;-85
2022/09/28 09:35:03;;;;;;;12.48;5.47;;;;;;;21.29;91.85;98953.16;4936823;29;20031;-84
2022/09/28 09:38:34;;;;;;;14.88;5.63;;;;;;;20.89;95.77;98962.78;4953301;29;20038;-85
2022/09/28 09:41:37;;;;;;;18.30;6.28;;;;;;;21.44;95.40;98953.16;4938337;29;20051;-86
2022/09/28 09:44:56;;;;;;;15.80;5.78;;;;;;;22.07;90.06;98949.81;4922482;29;20043;-85
2022/09/28 09:48:05;;;;;;;13.77;5.68;;;;;;;22.72;86.44;98952.53;4896169;29;20056;-85
2022/09/28 09:50:48;;;;;;;15.45;6.43;;;;;;;22.54;86.01;98954.75;4941309;29;20524;-86
2022/09/28 09:53:22;;;;;;;;;;;;;;;22.58;85.67;98939.59;4918611;29;20524;-87
2022/09/28 09:55:57;;;;;;;19.95;6.00;;;;;;;22.31;85.55;98931.09;4918316;29;19923;-85
2022/09/28 09:58:43;;;;;;;10.30;5.40;;;;;;;22.03;88.56;98931.75;4916876;29;20040;-86
2022/09/28 10:01:38;;;;;;;16.90;5.65;;;;;;;22.73;86.58;98919.03;4919974;29;20048;-85
2022/09/28 10:04:24;;;;;;;13.60;5.22;;;;;;;22.86;85.53;98913.81;4898359;29;20451;-84
2022/09/28 10:07:00;;;;;;;15.60;5.85;;;;;;;22.78;85.76;98922.50;4901022;29;20039;-84
2022/09/28 10:09:31;;;;;;;17.52;6.20;;;;;;;22.36;87.83;98911.38;4908931;29;20476;-84
2022/09/28 10:12:21;;;;;;;16.27;7.25;;;;;;;22.86;85.73;98913.81;4932571;28;20042;-85
2022/09/28 10:14:48;;;;;;;9.50;5.38;;;;;;;22.73;86.28;98898.22;4949369;28;20114;-84
2022/09/28 10:17:17;;;;;;;10.55;4.75;;;;;;;22.87;83.01;98909.22;4963593;28;20084;-84
2022/09/28 10:20:02;;;;;;;13.20;4.82;;;;;;;22.73;85.12;98902.81;4993708;28;20072;-88
2022/09/28 10:22:32;;;;;;;13.35;4.68;;;;;;;22.62;86.37;98902.03;4994119;28;20105;-85
2022/09/28 10:25:04;;;;;;;;;;;;;;;22.84;86.37;98899.75;4941684;29;20123;-84
2022/09/28 10:27:33;;;;;;;12.32;5.43;;;;;;;22.80;86.65;98914.13;4937342;29;19922;-88
2022/09/28 10:30:14;;;;;;;14.98;5.30;;;;;;;22.36;88.70;98895.19;4954721;29;20401;-83
2022/09/28 10:32:44;;;;;;;9.98;4.57;;;;;;;22.52;88.21;98896.69;4954544;29;20047;-84
2022/09/28 10:35:22;;;;;;;14.15;5.00;;;;;;;22.55;88.99;98901.53;4937259;29;20090;-87
2022/09/28 10:38:15;;;;;;;12.02;4.97;;;;;;;22.31;86.97;98893.31;4937468;29;20492;-83
2022/09/28 10:41:08;;;;;;;13.98;4.40;;;;;;;22.46;87.16;98904.03;4954725;29;20047;-83
2022/09/28 10:44:09;;;;;;;11.57;4.38;;;;;;;22.55;86.10;98893.44;4926357;29;20066;-84
2022/09/28 10:46:57;;;;;;;12.43;4.93;;;;;;;22.82;85.84;98896.53;4965161;28;20038;-85
2022/09/28 10:49:24;;;;;;;10.10;3.95;;;;;;;23.33;83.73;98893.44;4969624;28;20053;-84
2022/09/28 10:51:55;;;;;;;11.85;4.25;;;;;;;23.30;82.89;98894.00;4952376;28;20046;-85
2022/09/28 10:54:30;;;;;;;11.13;4.20;;;;;;;23.25;81.26;98889.44;4966953;28;20031;-87
2022/09/28 10:56:58;;;;;;;13.38;4.18;;;;;;;23.64;80.38;98868.53;4960251;28;20042;-84
2022/09/28 10:59:41;;;;;;;11.57;4.20;;;;;;;23.51;79.30;98884.63;4961623;28;20392;-85
2022/09/28 11:02:36;;;;;;;13.45;4.53;;;;;;;22.86;81.99;98876.00;4989749;28;20054;-84
2022/09/28 11:05:06;;;;;;;7.90;3.63;;;;;;;22.50;86.36;98866.50;4959935;28;20038;-86
2022/09/28 11:07:46;;;;;;;13.18;4.20;;;;;;;22.39;86.41;98864.94;4959594;28;20453;-83
2022/09/28 11:10:23;;;;;;;14.50;4.28;;;;;;;22.23;86.56;98855.31;4959724;28;20492;-84
2022/09/28 11:12:52;;;;;;;12.38;4.38;;;;;;;22.12;88.20;98858.06;4959824;28;20648;-84
2022/09/28 11:15:23;;;;;;;10.52;4.60;;;;;;;22.93;83.77;98854.06;4943799;28;20058;-83
2022/09/28 11:17:51;;;;;;;12.63;3.90;;;;;;;22.95;83.73;98858.06;4959723;28;20431;-81
2022/09/28 11:20:34;;;;;;;9.25;3.92;;;;;;;22.24;85.68;98851.53;4962384;28;20038;-85
2022/09/28 11:23:28;;;;;;;12.82;4.53;;;;;;;22.08;88.01;98851.59;4971199;28;20073;-86
2022/09/28 11:26:03;;;;;;;9.27;3.70;;;;;;;21.98;87.61;98848.94;4959688;28;20034;-86
2022/09/28 11:28:36;;;;;;;;;;;;;;;22.05;84.35;98841.34;4977222;28;20037;-85
2022/09/28 11:31:08;;;;;;;11.07;3.25;;;;;;;22.40;83.89;98834.97;4964707;28;19922;-90
2022/09/28 11:34:13;;;;;;;18.83;4.20;;;;;;;21.89;85.14;98839.81;4960481;28;20070;-88
2022/09/28 11:37:03;;;;;;;15.40;3.42;;;;;;;21.57;88.77;98842.88;4959838;28;20073;-91
2022/09/28 11:40:24;;;;;;;11.65;3.42;;;;;;;21.52;89.14;98836.66;4958505;28;20061;-90
2022/09/28 11:43:00;;;;;;;6.32;3.15;;;;;;;21.35;89.83;98839.69;4886068;29;20609;-91
2022/09/28 11:45:51;;;;;;;14.02;3.30;;;;;;;21.45;88.39;98833.44;4963961;29;20043;-89
2022/09/28 11:48:28;;;;;;;11.23;3.92;;;;;;;21.16;87.92;98829.75;4948335;29;20094;-88
2022/09/28 11:51:11;;;;;;;17.70;4.53;;;;;;;21.24;87.83;98830.03;4942750;29;20163;-88
2022/09/28 11:54:00;;;;;;;12.93;3.35;;;;;;;21.17;87.99;98828.69;4948255;29;20070;-87
2022/09/28 11:56:41;;;;;;;11.07;3.03;;;;;;;21.23;88.27;98832.97;4964412;29;20054;-87
2022/09/28 11:59:32;;;;;;;10.50;3.08;;;;;;;21.22;89.19;98831.34;4957440;29;20407;-86
2022/09/28 12:02:20;;;;;;;9.27;2.88;;;;;;;21.01;90.10;98838.63;4957632;28;20039;-89
2022/09/28 12:05:09;;;;;;;14.98;4.88;;;;;;;20.90;90.73;98824.38;5005849;23;20050;-88
2022/09/28 12:10:34;;;;;;;9.07;3.33;;;;;;;21.01;91.56;98807.09;5048453;23;20055;-91
2022/09/28 12:13:43;;;;;;;15.48;3.67;;;;;;;21.25;90.25;98807.34;4973839;28;20081;-90
2022/09/28 12:16:33;;;;;;;10.98;2.95;;;;;;;21.02;90.26;98806.03;4977944;28;20045;-88
2022/09/28 12:19:12;;;;;;;9.10;3.15;;;;;;;21.26;88.21;98808.97;4999341;28;20038;-87
2022/09/28 12:22:08;;;;;;;10.25;3.33;;;;;;;21.20;89.03;98804.69;4980695;28;20028;-89
2022/09/28 12:24:46;;;;;;;15.80;3.00;;;;;;;21.17;90.41;98804.44;4977674;28;20062;-88
2022/09/28 12:27:30;;;;;;;12.27;2.83;;;;;;;21.24;89.14;98804.97;4947756;28;20038;-88
2022/09/28 12:29:58;;;;;;;22.58;2.88;;;;;;;21.06;90.08;98804.41;4966857;28;20035;-84
2022/09/28 12:32:37;;;;;;;14.93;3.28;;;;;;;21.13;88.45;98801.47;4953313;28;20082;-90
2022/09/28 12:35:11;;;;;;;10.68;2.10;;;;;;;21.12;87.39;98811.44;4974617;28;20074;-88
2022/09/28 12:37:55;;;;;;;15.15;2.63;;;;;;;21.01;87.92;98798.22;4957136;28;20571;-90
2022/09/28 12:40:33;;;;;;;10.23;2.40;;;;;;;21.13;87.14;98806.84;4953333;28;20038;-88
2022/09/28 12:43:53;;;;;;;10.43;1.85;;;;;;;21.18;86.57;98795.28;4977064;28;20025;-85
2022/09/28 12:47:17;;;;;;;11.10;2.40;;;;;;;21.17;84.30;98809.81;4994172;28;20049;-85
2022/09/28 12:50:20;;;;;;;12.63;2.88;;;;;;;21.33;84.24;98808.69;4963882;28;20061;-85
2022/09/28 12:58:52;;;;;;;6.20;1.88;;;;;;;21.16;83.69;98792.03;729611;26;20386;-84
2022/09/28 13:01:47;;;;;;;12.00;1.92;;;;;;;21.07;86.11;98784.47;4958071;29;20082;-84
2022/09/28 13:05:14;;;;;;;10.00;2.53;;;;;;;21.23;85.67;98781.78;4976177;28;20043;-83
2022/09/28 13:17:24;;;;;;;8.63;2.17;;;;;;;21.16;85.81;98771.28;5014004;28;20035;-85
2022/09/28 13:20:31;;;;;;;9.82;2.28;;;;;;;21.22;86.73;98774.75;5089656;23;20146;-86
2022/09/28 14:29:13;;;;;;;8.20;1.80;;;;;;;21.08;84.64;98748.38;5432525;23;19913;-86
2022/09/28 14:32:58;;;;;;;16.17;1.95;;;;;;;20.98;84.93;98732.22;4962558;29;20134;-82
2022/09/28 14:35:48;;;;;;;7.97;1.77;;;;;;;21.18;83.21;98736.78;4940052;29;20055;-91
2022/09/28 14:41:33;;;;;;;7.63;1.33;;;;;;;21.30;83.37;98728.41;4913229;29;20061;-90
2022/09/28 14:44:05;;;;;;;10.25;1.77;;;;;;;21.26;84.73;98722.75;4918038;29;20048;-88
2022/09/28 14:46:36;;;;;;;14.20;1.73;;;;;;;21.04;86.00;98715.00;4983189;28;20042;-88
2022/09/28 14:49:49;;;;;;;17.93;2.20;;;;;;;21.02;85.44;98719.84;4957167;29;20059;-88
2022/09/28 14:52:34;;;;;;;11.48;2.20;;;;;;;21.03;85.21;98724.16;4938727;29;20126;-88
2022/09/28 14:55:11;;;;;;;12.55;2.55;;;;;;;20.94;86.44;98715.03;4970314;23;20052;-89
2022/09/28 14:57:43;;;;;;;6.75;1.90;;;;;;;21.08;86.17;98718.72;4951985;29;20042;-88
2022/09/28 15:00:21;;;;;;;15.32;2.53;;;;;;;21.10;85.60;98724.69;4970264;29;20031;-87
2022/09/28 15:02:51;;;;;;;15.50;2.00;;;;;;;21.08;86.32;98713.34;4939763;29;20122;-90
2022/09/28 15:05:28;;;;;;;16.35;2.70;;;;;;;21.08;86.64;98715.22;4950656;29;20043;-89
2022/09/28 15:07:56;;;;;;;14.52;2.25;;;;;;;20.95;86.63;98716.63;4928115;29;20043;-90
2022/09/28 15:10:30;;;;;;;15.60;2.10;;;;;;;21.00;85.92;98719.31;4933161;29;20495;-88
2022/09/28 15:13:30;;;;;;;12.85;2.60;;;;;;;21.03;86.05;98723.34;4920075;29;20027;-89
2022/09/28 15:16:10;;;;;;;7.55;2.47;;;;;;;20.89;87.99;98717.72;4921445;29;20103;-90
2022/09/28 15:18:54;;;;;;;10.75;2.08;;;;;;;20.90;88.42;98713.94;4957313;23;20138;-85
2022/09/28 15:21:20;;;;;;;19.52;2.45;;;;;;;20.88;88.05;98704.53;4927744;29;20050;-82
2022/09/28 15:23:51;;;;;;;9.32;2.28;;;;;;;20.66;89.27;98702.13;4949580;29;20058;-83
2022/09/28 15:26:28;;;;;;;12.52;2.13;;;;;;;20.83;88.90;98708.03;4946714;29;20520;-86
2022/09/28 15:28:54;;;;;;;11.95;2.22;;;;;;;20.80;86.92;98711.28;4925335;29;20051;-83
2022/09/28 15:31:24;;;;;;;15.57;2.15;;;;;;;20.91;88.83;98702.06;4946730;29;20511;-83
2022/09/28 15:36:49;;;;;;;9.13;1.40;;;;;;;20.94;86.92;98689.97;4944388;29;20115;-84
2022/09/28 15:39:31;;;;;;;13.63;1.98;;;;;;;20.87;86.76;98692.94;4941111;29;20136;-84
2022/09/28 15:41:58;;;;;;;14.63;2.15;;;;;;;20.71;87.73;98691.38;4937398;29;20053;-83